Time;durP1;ratioP1;P1;durP2;ratioP2;P2;SDS_P1;SDS_P2;PMS_P1;PMS_P2;Temp;Humidity;BMP_temperature;BMP_pressure;BME280_temperature;BME280_humidity;BME280_pressure;Samples;Min_cycle;Max_cycle;Signal;HPM_P1;HPM_P2
2022/12/21 00:02:19;;;;;;;17.95;13.32;;;;;;;10.00;100.00;100935.38;5092844;28;20042;-50
2022/12/21 00:04:47;;;;;;;18.83;14.75;;;;;;;10.00;100.00;100934.56;5092101;28;20119;-52
2022/12/21 00:07:15;;;;;;;20.73;14.93;;;;;;;9.99;100.00;100943.81;5092965;28;20050;-50
2022/12/21 00:09:42;;;;;;;19.75;15.13;;;;;;;9.96;100.00;100939.72;5091831;28;20089;-49
2022/12/21 00:12:10;;;;;;;18.58;15.00;;;;;;;9.96;100.00;100928.81;5094124;28;20047;-53
2022/12/21 00:14:37;;;;;;;17.48;14.02;;;;;;;9.97;100.00;100918.75;5093986;28;20051;-55
2022/12/21 00:17:05;;;;;;;19.10;15.80;;;;;;;9.98;100.00;100920.38;5092174;28;20040;-54
2022/12/21 00:19:33;;;;;;;18.63;14.95;;;;;;;9.98;100.00;100914.94;5092983;28;20040;-52
2022/12/21 00:22:01;;;;;;;19.02;14.95;;;;;;;10.00;100.00;100912.78;5080375;28;20037;-53
2022/12/21 00:24:28;;;;;;;18.73;15.57;;;;;;;10.00;100.00;100918.22;5084822;28;20044;-51
2022/12/21 00:26:56;;;;;;;18.63;14.70;;;;;;;9.99;100.00;100928.31;5091158;28;20094;-52
2022/12/21 00:29:26;;;;;;;19.25;14.90;;;;;;;9.99;100.00;100924.75;5092905;28;20070;-53
2022/12/21 00:31:54;;;;;;;18.80;15.02;;;;;;;9.99;100.00;100919.31;5092883;28;20036;-54
2022/12/21 00:34:23;;;;;;;21.23;16.25;;;;;;;9.99;100.00;100928.31;5093941;28;20044;-56
2022/12/21 00:36:51;;;;;;;20.67;16.05;;;;;;;9.99;100.00;100927.50;5091824;28;20040;-53
2022/12/21 00:39:19;;;;;;;21.77;15.75;;;;;;;9.98;100.00;100926.66;5092744;28;20388;-50
2022/12/21 00:41:46;;;;;;;20.92;16.83;;;;;;;9.98;100.00;100942.16;5095425;28;20596;-53
2022/12/21 00:44:14;;;;;;;18.90;15.75;;;;;;;9.98;100.00;100944.88;5096706;28;20051;-52
2022/12/21 00:46:42;;;;;;;20.52;15.88;;;;;;;9.96;100.00;100944.34;5095979;28;20506;-50
2022/12/21 00:49:11;;;;;;;22.23;16.98;;;;;;;9.96;100.00;100938.91;5098402;28;20044;-50
2022/12/21 00:51:38;;;;;;;20.40;16.45;;;;;;;9.92;100.00;100943.22;5094853;28;20395;-51
2022/12/21 00:54:06;;;;;;;20.23;16.42;;;;;;;9.93;100.00;100947.56;5096332;28;20509;-49
2022/12/21 00:56:34;;;;;;;19.05;16.52;;;;;;;9.92;100.00;100945.94;5096194;28;20410;-50
2022/12/21 00:59:01;;;;;;;19.45;17.05;;;;;;;9.93;100.00;100945.69;5095268;28;20396;-50
2022/12/21 01:01:34;;;;;;;20.65;16.13;;;;;;;9.95;100.00;100943.50;5095896;28;20047;-53
2022/12/21 01:04:02;;;;;;;22.08;18.20;;;;;;;9.94;100.00;100935.63;5095381;28;20051;-53
2022/12/21 01:06:34;;;;;;;20.75;17.08;;;;;;;9.94;100.00;100943.78;5062071;28;20102;-52
2022/12/21 01:09:03;;;;;;;22.10;16.88;;;;;;;9.93;100.00;100948.41;5075010;28;20132;-54
2022/12/21 01:11:31;;;;;;;21.25;17.08;;;;;;;9.94;100.00;100960.94;5073264;28;20039;-53
2022/12/21 01:13:59;;;;;;;22.80;17.05;;;;;;;9.95;100.00;100964.47;5078145;28;20043;-53
2022/12/21 01:16:29;;;;;;;21.40;17.40;;;;;;;9.95;100.00;100969.91;5095955;28;20079;-56
2022/12/21 01:19:00;;;;;;;21.23;17.50;;;;;;;9.94;100.00;100969.09;5095182;28;20051;-56
2022/12/21 01:21:29;;;;;;;25.38;18.02;;;;;;;9.94;100.00;100973.72;5094303;28;20040;-53
2022/12/21 01:23:58;;;;;;;22.25;18.20;;;;;;;9.94;100.00;100979.97;5095823;28;20052;-56
2022/12/21 01:26:26;;;;;;;20.25;17.75;;;;;;;9.93;100.00;100964.75;5077907;28;20490;-54
2022/12/21 01:28:54;;;;;;;21.48;18.33;;;;;;;9.94;100.00;100968.28;5103193;28;20048;-56
2022/12/21 01:31:21;;;;;;;22.25;18.05;;;;;;;9.94;100.00;100968.28;5095614;28;20047;-54
2022/12/21 01:33:49;;;;;;;21.52;17.83;;;;;;;9.93;100.00;100962.03;5077895;28;20101;-56
2022/12/21 01:36:18;;;;;;;21.20;17.80;;;;;;;9.93;100.00;100964.75;5095820;28;20050;-54
2022/12/21 01:38:46;;;;;;;22.45;18.25;;;;;;;9.93;100.00;100956.56;5095575;28;20095;-53
2022/12/21 01:41:25;;;;;;;20.45;17.35;;;;;;;9.93;100.00;100942.97;5094473;28;20036;-54
2022/12/21 01:43:55;;;;;;;20.55;17.67;;;;;;;9.93;100.00;100958.47;5095626;28;20052;-51
2022/12/21 01:46:22;;;;;;;24.75;19.10;;;;;;;9.92;100.00;100973.16;5095626;28;20134;-52
2022/12/21 01:49:02;;;;;;;20.00;16.25;;;;;;;9.92;100.00;100970.44;5094243;28;20119;-52
2022/12/21 01:51:32;;;;;;;22.05;18.17;;;;;;;9.92;100.00;100975.88;5095139;28;20048;-53
2022/12/21 01:54:09;;;;;;;22.55;18.98;;;;;;;9.92;100.00;100970.44;5094470;28;20032;-54
2022/12/21 01:56:38;;;;;;;23.10;18.63;;;;;;;9.90;100.00;100975.31;5096180;28;20521;-53
2022/12/21 01:59:21;;;;;;;23.38;18.33;;;;;;;9.89;100.00;100976.41;5094332;28;20474;-53
2022/12/21 02:01:48;;;;;;;19.02;16.33;;;;;;;9.88;100.00;100982.91;5073469;28;20036;-56
2022/12/21 02:04:16;;;;;;;20.25;17.10;;;;;;;9.88;100.00;100977.47;5092116;28;20040;-52
2022/12/21 02:06:53;;;;;;;21.13;17.98;;;;;;;9.89;100.00;100987.28;5095058;28;20051;-55
2022/12/21 02:09:22;;;;;;;23.70;19.52;;;;;;;9.89;100.00;100976.41;5074904;28;20032;-54
2022/12/21 02:11:50;;;;;;;21.45;18.88;;;;;;;9.87;100.00;100971.22;5075124;28;20047;-56
2022/12/21 02:14:18;;;;;;;21.88;18.92;;;;;;;9.88;100.00;100969.31;5082552;28;20045;-56
2022/12/21 02:17:21;;;;;;;21.42;19.13;;;;;;;9.88;100.00;100964.69;5094425;28;20098;-56
2022/12/21 02:20:13;;;;;;;21.70;19.23;;;;;;;9.87;100.00;100956.78;5064715;28;20044;-51
2022/12/21 02:22:55;;;;;;;22.30;18.80;;;;;;;9.87;100.00;100956.78;5090165;28;20055;-55
2022/12/21 02:25:33;;;;;;;22.70;19.30;;;;;;;9.85;100.00;100948.06;5094604;28;20131;-52
2022/12/21 02:28:24;;;;;;;22.67;19.35;;;;;;;9.87;100.00;100954.06;5090653;28;20040;-55
2022/12/21 02:31:12;;;;;;;21.30;17.63;;;;;;;9.87;100.00;100960.31;5094995;28;20052;-53
2022/12/21 02:33:59;;;;;;;22.80;19.38;;;;;;;9.88;100.00;100955.69;5085951;28;20039;-53
2022/12/21 02:36:40;;;;;;;22.30;19.38;;;;;;;9.88;100.00;100947.53;5093427;28;20040;-54
2022/12/21 02:39:32;;;;;;;26.33;19.75;;;;;;;9.88;100.00;100942.91;5094758;28;20452;-52
2022/12/21 02:44:12;;;;;;;26.90;20.35;;;;;;;9.86;100.00;100946.97;5080465;28;20051;-52
2022/12/21 02:45:12;;;;;;;22.95;20.52;;;;;;;9.84;100.00;100949.97;5078887;28;20432;-56
2022/12/21 02:47:55;;;;;;;25.95;20.33;;;;;;;9.81;100.00;100951.31;5093353;28;20505;-50
2022/12/21 02:50:27;;;;;;;24.75;21.05;;;;;;;9.82;100.00;100947.50;5093299;28;20032;-54
2022/12/21 02:53:08;;;;;;;23.83;19.80;;;;;;;9.85;100.00;100953.50;5092418;28;20048;-56
2022/12/21 02:55:36;;;;;;;23.52;18.83;;;;;;;9.85;100.00;100943.44;5096483;28;20040;-53
2022/12/21 02:58:14;;;;;;;22.45;20.05;;;;;;;9.84;100.00;100941.81;5109926;28;20043;-55
2022/12/21 03:01:21;;;;;;;23.40;20.42;;;;;;;9.82;100.00;100947.50;5092981;28;20040;-56
2022/12/21 03:04:33;;;;;;;21.63;18.20;;;;;;;9.80;100.00;100941.50;5087038;28;20040;-56
2022/12/21 03:07:14;;;;;;;22.45;19.02;;;;;;;9.82;100.00;100952.13;5086570;28;20044;-52
2022/12/21 03:10:05;;;;;;;22.50;18.40;;;;;;;9.82;100.00;100955.66;5092799;28;20067;-55
2022/12/21 03:13:09;;;;;;;21.63;17.42;;;;;;;9.84;100.00;100949.13;5089906;28;20044;-53
2022/12/21 03:15:40;;;;;;;18.92;16.60;;;;;;;9.82;100.00;100939.34;5075899;28;20035;-56
2022/12/21 03:18:23;;;;;;;22.77;19.67;;;;;;;9.85;100.00;100939.91;5082515;28;20076;-51
2022/12/21 03:21:04;;;;;;;23.10;20.42;;;;;;;9.82;100.00;100933.06;5090374;28;20066;-55
2022/12/21 03:24:03;;;;;;;25.67;20.75;;;;;;;9.81;100.00;100926.81;5089425;28;20048;-53
2022/12/21 03:26:34;;;;;;;21.08;18.58;;;;;;;9.81;100.00;100931.41;5093747;28;20044;-54
2022/12/21 03:29:02;;;;;;;24.52;20.98;;;;;;;9.77;100.00;100931.13;5093060;28;20048;-52
2022/12/21 03:31:34;;;;;;;23.83;20.80;;;;;;;9.76;100.00;100929.47;5093291;28;20111;-55
2022/12/21 03:34:12;;;;;;;23.95;20.40;;;;;;;9.77;100.00;100925.69;5093595;28;20090;-52
2022/12/21 03:36:45;;;;;;;23.10;20.48;;;;;;;9.77;100.00;100920.25;5094097;28;20046;-56
2022/12/21 03:39:16;;;;;;;18.98;16.02;;;;;;;9.78;100.00;100930.03;5092298;28;20036;-56
2022/12/21 03:41:56;;;;;;;17.40;15.35;;;;;;;9.80;100.00;100935.22;5093446;28;20398;-53
2022/12/21 03:44:33;;;;;;;22.08;19.13;;;;;;;9.80;100.00;100919.72;5107066;28;20650;-56
2022/12/21 03:47:05;;;;;;;25.60;21.75;;;;;;;9.79;100.00;100918.09;5066355;28;20040;-54
2022/12/21 03:49:45;;;;;;;27.38;21.35;;;;;;;9.77;100.00;100922.97;5093626;28;20044;-56
2022/12/21 03:52:23;;;;;;;21.23;17.10;;;;;;;9.76;100.00;100934.91;5093111;28;20563;-55
2022/12/21 03:55:05;;;;;;;28.23;19.85;;;;;;;9.77;100.00;100922.16;5092233;28;20110;-52
2022/12/21 03:57:33;;;;;;;21.63;18.13;;;;;;;9.77;100.00;100925.69;5092784;28;20040;-54
2022/12/21 04:00:03;;;;;;;23.60;20.52;;;;;;;9.78;100.00;100931.94;5092508;28;20059;-57
2022/12/21 04:03:00;;;;;;;26.08;21.55;;;;;;;9.77;100.00;100930.31;5094295;28;20042;-55
2022/12/21 04:05:33;;;;;;;26.63;21.75;;;;;;;9.76;100.00;100924.03;5086048;28;20040;-53
2022/12/21 04:08:02;;;;;;;25.98;21.83;;;;;;;9.75;100.00;100910.72;5069493;28;20380;-54
2022/12/21 04:10:29;;;;;;;25.85;22.10;;;;;;;9.76;100.00;100901.44;5091579;28;20043;-57
2022/12/21 04:12:57;;;;;;;24.48;21.15;;;;;;;9.75;100.00;100906.06;5093304;28;20048;-55
2022/12/21 04:16:03;;;;;;;26.00;21.52;;;;;;;9.75;100.00;100908.81;5094988;28;20040;-51
2022/12/21 04:19:57;;;;;;;24.60;21.58;;;;;;;9.75;100.00;100919.69;5086642;28;20051;-55
2022/12/21 04:21:03;;;;;;;23.50;19.02;;;;;;;9.75;100.00;100922.41;5111061;28;20505;-57
2022/12/21 04:29:03;;;;;;;;;;;;;;;9.74;100.00;100934.38;5097134;28;20043;-52
2022/12/21 04:31:30;;;;;;;21.75;17.38;;;;;;;9.73;100.00;100923.75;5096594;28;19926;-55
2022/12/21 04:33:58;;;;;;;22.85;17.63;;;;;;;9.72;100.00;100917.50;5097802;28;20117;-54
2022/12/21 04:39:12;;;;;;;;;;;;;;;9.77;100.00;100919.44;5092184;28;20056;-55
2022/12/21 04:41:39;;;;;;;21.27;17.05;;;;;;;9.75;100.00;100916.97;5096515;28;19924;-54
2022/12/21 04:44:07;;;;;;;27.55;21.45;;;;;;;9.74;100.00;100914.50;5097571;28;20044;-55
2022/12/21 04:46:34;;;;;;;22.15;16.42;;;;;;;9.74;100.00;100912.63;5097329;28;20078;-55
2022/12/21 04:49:03;;;;;;;21.95;18.55;;;;;;;9.75;100.00;100925.13;5097011;28;20555;-56
2022/12/21 04:51:31;;;;;;;24.23;18.63;;;;;;;9.76;100.00;100921.31;5097565;28;20036;-54
2022/12/21 04:53:58;;;;;;;24.63;18.70;;;;;;;9.73;100.00;100921.84;5095822;28;20047;-52
2022/12/21 04:56:26;;;;;;;25.67;19.10;;;;;;;9.73;100.00;100918.31;5095265;28;20033;-52
2022/12/21 04:58:53;;;;;;;25.80;20.42;;;;;;;9.72;100.00;100922.94;5096359;28;20051;-52
2022/12/21 05:01:22;;;;;;;24.25;17.85;;;;;;;9.71;100.00;100918.56;5096127;28;20490;-49
2022/12/21 05:03:50;;;;;;;27.83;21.30;;;;;;;9.70;100.00;100906.03;5095253;28;20126;-53
2022/12/21 05:06:18;;;;;;;26.55;21.10;;;;;;;9.69;100.00;100895.41;5095231;28;20051;-50
2022/12/21 05:08:46;;;;;;;25.38;21.02;;;;;;;9.66;100.00;100899.47;5094787;28;20047;-52
2022/12/21 05:11:19;;;;;;;25.85;20.35;;;;;;;9.62;100.00;100909.25;5092494;28;20048;-55
2022/12/21 05:13:48;;;;;;;23.98;19.35;;;;;;;9.60;100.00;100911.41;5096175;28;20048;-57
2022/12/21 05:16:18;;;;;;;21.02;16.20;;;;;;;9.63;100.00;100916.31;5095822;28;20421;-53
2022/12/21 05:18:48;;;;;;;22.65;16.75;;;;;;;9.63;100.00;100912.78;5094890;28;20414;-54
2022/12/21 05:21:17;;;;;;;21.80;17.08;;;;;;;9.64;100.00;100906.25;5095032;28;20051;-54
2022/12/21 05:23:45;;;;;;;22.35;17.30;;;;;;;9.63;100.00;100905.44;5094636;28;20456;-55
2022/12/21 05:26:13;;;;;;;19.33;14.00;;;;;;;9.62;100.00;100905.69;5094072;28;20512;-51
2022/12/21 05:28:46;;;;;;;19.60;15.00;;;;;;;9.62;100.00;100911.13;5095745;28;20093;-52
2022/12/21 05:31:15;;;;;;;23.30;16.35;;;;;;;9.62;100.00;100917.41;5095641;28;20059;-54
2022/12/21 05:33:43;;;;;;;22.38;17.02;;;;;;;9.60;100.00;100920.38;5083263;28;20037;-55
2022/12/21 05:36:13;;;;;;;21.85;16.83;;;;;;;9.59;100.00;100921.44;5095392;28;20394;-50
2022/12/21 05:38:41;;;;;;;24.33;16.80;;;;;;;9.58;100.00;100921.72;5095413;28;20046;-54
2022/12/21 05:41:11;;;;;;;22.15;15.98;;;;;;;9.60;100.00;100916.84;5094321;28;20039;-53
2022/12/21 05:43:39;;;;;;;21.85;15.65;;;;;;;9.58;100.00;100919.00;5085472;28;20068;-50
2022/12/21 05:46:09;;;;;;;21.08;15.27;;;;;;;9.58;100.00;100910.84;5091155;28;20040;-51
2022/12/21 05:48:38;;;;;;;20.55;15.45;;;;;;;9.59;100.00;100901.59;5095117;28;20124;-50
2022/12/21 05:51:10;;;;;;;20.75;15.23;;;;;;;9.56;100.00;100897.50;5094606;28;20040;-58
2022/12/21 05:53:41;;;;;;;23.02;17.48;;;;;;;9.48;100.00;100902.59;5094909;28;20052;-54
2022/12/21 05:56:09;;;;;;;21.83;16.52;;;;;;;9.42;100.00;100898.19;5093897;28;20040;-52
2022/12/21 05:58:37;;;;;;;24.63;16.95;;;;;;;9.37;100.00;100897.06;5094794;28;20046;-56
2022/12/21 06:01:06;;;;;;;24.88;16.30;;;;;;;9.36;100.00;100895.41;5076734;28;20040;-57
2022/12/21 06:03:34;;;;;;;18.33;13.07;;;;;;;9.39;100.00;100881.31;5092772;28;20512;-53
2022/12/21 06:06:04;;;;;;;19.17;13.52;;;;;;;9.42;100.00;100879.16;5093407;28;20063;-57
2022/12/21 06:08:32;;;;;;;15.55;11.80;;;;;;;9.46;100.00;100885.72;5094708;28;20037;-57
2022/12/21 06:11:05;;;;;;;19.80;13.25;;;;;;;9.46;100.00;100885.72;5094850;28;20055;-54
2022/12/21 06:13:32;;;;;;;20.00;12.43;;;;;;;9.47;100.00;100888.16;5093547;28;20054;-55
2022/12/21 06:16:06;;;;;;;17.63;12.43;;;;;;;9.48;100.00;100887.09;5093072;28;20039;-52
2022/12/21 06:18:34;;;;;;;16.13;10.90;;;;;;;9.49;100.00;100885.19;5081432;28;20091;-52
2022/12/21 06:21:02;;;;;;;19.33;13.05;;;;;;;9.47;100.00;100893.59;5110167;28;20036;-55
2022/12/21 06:23:30;;;;;;;15.55;11.25;;;;;;;9.47;100.00;100888.16;5094007;28;20071;-59
2022/12/21 06:25:59;;;;;;;19.92;14.50;;;;;;;9.38;100.00;100889.72;5094103;28;20039;-55
2022/12/21 06:28:27;;;;;;;22.85;15.38;;;;;;;9.33;100.00;100881.50;5093081;28;20040;-54
2022/12/21 06:31:00;;;;;;;21.45;15.52;;;;;;;9.30;100.00;100888.28;5094101;28;20044;-53
2022/12/21 06:33:28;;;;;;;25.02;16.17;;;;;;;9.25;100.00;100890.97;5094599;28;20119;-54
2022/12/21 06:35:56;;;;;;;21.35;16.00;;;;;;;9.24;100.00;100892.06;5093814;28;20398;-51
2022/12/21 06:38:24;;;;;;;18.08;12.43;;;;;;;9.29;100.00;100888.56;5093220;28;20059;-55
2022/12/21 06:40:57;;;;;;;19.35;12.63;;;;;;;9.33;100.00;100890.50;5093904;28;20525;-54
2022/12/21 06:43:26;;;;;;;19.08;12.70;;;;;;;9.35;100.00;100893.75;5076340;28;20051;-56
2022/12/21 06:45:58;;;;;;;17.20;11.55;;;;;;;9.38;100.00;100897.91;5093538;28;20052;-56
2022/12/21 06:48:27;;;;;;;20.02;13.35;;;;;;;9.37;100.00;100899.78;5053056;28;20489;-55
2022/12/21 06:50:57;;;;;;;20.52;12.45;;;;;;;9.38;100.00;100900.63;5075955;28;20047;-57
2022/12/21 06:53:26;;;;;;;20.05;12.02;;;;;;;9.36;100.00;100898.13;5092389;28;20032;-56
2022/12/21 06:56:05;;;;;;;18.20;12.57;;;;;;;9.34;100.00;100888.59;5092410;28;20036;-57
2022/12/21 06:58:35;;;;;;;21.67;12.90;;;;;;;9.34;100.00;100894.84;5080234;28;20086;-57
2022/12/21 07:01:04;;;;;;;20.63;12.73;;;;;;;9.33;100.00;100898.66;5092982;28;20063;-56
2022/12/21 07:03:32;;;;;;;14.18;11.00;;;;;;;9.34;100.00;100896.75;5092261;28;20422;-55
2022/12/21 07:06:09;;;;;;;15.25;10.18;;;;;;;9.34;100.00;100903.00;5092444;28;20059;-58
2022/12/21 07:08:37;;;;;;;17.45;11.43;;;;;;;9.34;100.00;100900.28;4387372;28;10000240;-54
2022/12/21 07:11:10;;;;;;;22.05;12.43;;;;;;;9.33;100.00;100904.09;5088799;28;20568;-58
2022/12/21 07:13:40;;;;;;;15.98;10.73;;;;;;;9.33;100.00;100919.56;5090169;28;20048;-54
2022/12/21 07:16:08;;;;;;;15.07;8.82;;;;;;;9.35;100.00;100918.22;5090198;28;20123;-54
2022/12/21 07:18:37;;;;;;;15.77;9.10;;;;;;;9.35;100.00;100918.22;5075373;28;20586;-55
2022/12/21 07:21:07;;;;;;;13.02;8.93;;;;;;;9.35;100.00;100918.22;5105380;28;20498;-57
2022/12/21 07:23:37;;;;;;;16.15;8.55;;;;;;;9.36;100.00;100908.19;5089702;28;20044;-56
2022/12/21 07:26:11;;;;;;;17.63;11.93;;;;;;;9.32;100.00;100901.63;5088504;28;20044;-56
2022/12/21 07:28:38;;;;;;;18.50;12.48;;;;;;;9.25;100.00;100911.91;5090820;28;20047;-52
2022/12/21 07:31:08;;;;;;;18.00;12.38;;;;;;;9.20;100.00;100918.09;5087426;28;20123;-53
2022/12/21 07:33:37;;;;;;;17.67;11.82;;;;;;;9.17;100.00;100930.31;5089366;28;20044;-55
2022/12/21 07:36:06;;;;;;;14.77;9.88;;;;;;;9.20;100.00;100936.31;5087466;28;20044;-56
2022/12/21 07:38:35;;;;;;;16.40;8.90;;;;;;;9.22;100.00;100932.25;5086356;28;20040;-56
2022/12/21 07:41:05;;;;;;;14.65;8.98;;;;;;;9.24;100.00;100927.38;5092057;28;20460;-54
2022/12/21 07:43:33;;;;;;;13.10;7.82;;;;;;;9.27;100.00;100939.66;5066311;28;20552;-56
2022/12/21 07:46:10;;;;;;;15.10;8.82;;;;;;;9.25;100.00;100931.75;5072834;28;20051;-56
2022/12/21 07:48:38;;;;;;;14.48;7.82;;;;;;;9.25;100.00;100939.91;5092731;28;20047;-56
2022/12/21 07:51:05;;;;;;;14.57;8.90;;;;;;;9.24;100.00;100946.41;5094226;28;20044;-57
2022/12/21 07:53:33;;;;;;;16.75;8.52;;;;;;;9.23;100.00;100947.47;5092553;28;20036;-55
2022/12/21 07:56:07;;;;;;;14.65;9.63;;;;;;;9.23;100.00;100958.34;5090271;28;20406;-54
2022/12/21 07:58:35;;;;;;;16.38;9.45;;;;;;;9.21;100.00;100965.13;5086525;28;20115;-55
2022/12/21 08:01:09;;;;;;;16.40;9.07;;;;;;;9.14;100.00;100970.78;5093167;28;20048;-56
2022/12/21 08:03:38;;;;;;;15.27;9.43;;;;;;;9.07;100.00;100973.69;5093788;28;20363;-56
2022/12/21 08:06:07;;;;;;;17.35;10.05;;;;;;;9.02;100.00;100970.06;5092172;28;20091;-61
2022/12/21 08:08:36;;;;;;;16.52;10.23;;;;;;;8.96;100.00;100970.03;5092456;28;20032;-53
2022/12/21 08:11:04;;;;;;;15.55;9.20;;;;;;;8.98;100.00;100971.69;5094102;28;20055;-57
2022/12/21 08:13:32;;;;;;;14.32;8.00;;;;;;;9.01;100.00;100971.16;5093119;28;20036;-52
2022/12/21 08:16:11;;;;;;;14.82;7.85;;;;;;;9.04;100.00;100965.22;5079397;28;20051;-56
2022/12/21 08:18:39;;;;;;;12.57;6.55;;;;;;;9.06;100.00;100968.50;5093196;28;20123;-56
2022/12/21 08:21:07;;;;;;;11.57;5.88;;;;;;;9.08;100.00;100961.72;5079484;28;20111;-58
2022/12/21 08:23:35;;;;;;;13.55;6.80;;;;;;;9.09;100.00;100954.41;5091111;28;20040;-58
2022/12/21 08:26:05;;;;;;;14.85;5.65;;;;;;;9.11;100.00;100960.41;5092795;28;20037;-56
2022/12/21 08:28:32;;;;;;;17.08;6.82;;;;;;;9.10;100.00;100966.94;5091397;28;20044;-55
2022/12/21 08:31:02;;;;;;;12.70;5.90;;;;;;;9.10;100.00;100969.66;5092525;28;20042;-55
2022/12/21 08:33:30;;;;;;;14.90;5.38;;;;;;;9.10;100.00;100977.81;5092896;28;20094;-55
2022/12/21 08:35:58;;;;;;;11.00;5.22;;;;;;;9.11;100.00;100977.53;5092706;28;20452;-55
2022/12/21 08:38:25;;;;;;;13.38;5.80;;;;;;;9.12;100.00;100972.94;5091658;28;20036;-56
2022/12/21 08:41:14;;;;;;;11.88;5.78;;;;;;;9.12;100.00;100964.78;5092634;28;20043;-54
2022/12/21 08:43:41;;;;;;;11.70;5.50;;;;;;;9.14;100.00;100970.78;5091288;28;20040;-53
2022/12/21 08:46:11;;;;;;;14.02;5.30;;;;;;;9.15;100.00;100970.50;5088155;28;20537;-53
2022/12/21 08:48:39;;;;;;;13.48;5.88;;;;;;;9.17;100.00;100971.09;5089803;28;20494;-53
2022/12/21 08:51:07;;;;;;;13.25;6.03;;;;;;;9.15;100.00;100972.41;5087660;28;20038;-55
2022/12/21 08:53:36;;;;;;;12.13;5.15;;;;;;;9.15;100.00;100972.41;5090043;28;20449;-55
2022/12/21 08:56:04;;;;;;;12.82;5.78;;;;;;;9.13;100.00;100969.13;5091199;28;20467;-53
2022/12/21 08:58:32;;;;;;;14.98;5.95;;;;;;;9.15;100.00;100966.97;5083626;28;20123;-52
2022/12/21 09:01:00;;;;;;;14.18;6.80;;;;;;;9.16;100.00;100979.47;5091623;28;20498;-54
2022/12/21 09:03:28;;;;;;;14.32;6.88;;;;;;;9.17;100.00;100970.28;5096511;28;20052;-53
2022/12/21 09:06:02;;;;;;;14.80;6.38;;;;;;;9.22;100.00;100975.75;5096376;28;20067;-56
2022/12/21 09:08:35;;;;;;;13.98;5.55;;;;;;;9.23;100.00;100980.09;5096272;28;20119;-52
2022/12/21 09:11:10;;;;;;;15.55;5.82;;;;;;;9.23;100.00;100977.38;5095504;28;20044;-53
2022/12/21 09:13:38;;;;;;;15.98;5.93;;;;;;;9.27;100.00;100975.81;5095974;28;20544;-53
2022/12/21 09:16:18;;;;;;;15.77;5.97;;;;;;;9.28;100.00;100977.44;5096301;28;20430;-52
2022/12/21 09:18:46;;;;;;;16.23;6.60;;;;;;;9.26;100.00;100973.34;5081730;28;20051;-51
2022/12/21 09:21:16;;;;;;;14.63;6.93;;;;;;;9.26;100.00;100966.03;5095631;28;20036;-53
2022/12/21 09:23:43;;;;;;;18.80;6.95;;;;;;;9.36;100.00;100957.97;5093285;28;20469;-56
2022/12/21 09:26:12;;;;;;;14.48;6.88;;;;;;;9.36;100.00;100955.25;5096043;28;20040;-53
2022/12/21 09:28:39;;;;;;;14.98;6.82;;;;;;;9.36;100.00;100954.44;5095619;28;20463;-56
2022/12/21 09:31:18;;;;;;;13.38;6.35;;;;;;;9.35;100.00;100950.88;5094274;28;20036;-52
2022/12/21 09:33:53;;;;;;;18.88;6.88;;;;;;;9.37;100.00;100951.44;5095997;28;20048;-48
2022/12/21 09:36:21;;;;;;;16.77;6.78;;;;;;;9.41;100.00;100964.53;5111759;28;20040;-49
2022/12/21 09:38:49;;;;;;;17.00;6.93;;;;;;;9.39;100.00;100973.75;5095568;28;20036;-50
2022/12/21 09:41:26;;;;;;;16.15;7.07;;;;;;;9.35;100.00;100978.06;5094076;28;20079;-54
2022/12/21 09:44:20;;;;;;;18.13;7.60;;;;;;;9.35;100.00;100988.94;5095745;28;20394;-54
2022/12/21 09:46:51;;;;;;;17.08;7.97;;;;;;;9.37;100.00;100984.06;5084579;28;20040;-53
2022/12/21 09:49:31;;;;;;;17.20;7.93;;;;;;;9.37;100.00;100984.06;5089090;28;20054;-54
2022/12/21 09:52:01;;;;;;;18.10;7.72;;;;;;;9.36;100.00;100979.72;5094145;28;20517;-50
2022/12/21 09:54:59;;;;;;;15.07;7.38;;;;;;;9.36;100.00;100984.34;5083191;28;20045;-53
2022/12/21 09:57:33;;;;;;;18.95;7.65;;;;;;;9.38;100.00;100982.19;5093028;28;20052;-50
2022/12/21 10:00:01;;;;;;;18.33;8.18;;;;;;;9.42;100.00;100977.06;5091015;28;20040;-54
2022/12/21 10:02:50;;;;;;;18.10;8.75;;;;;;;9.41;100.00;100975.41;5090704;28;20036;-56
2022/12/21 10:05:21;;;;;;;18.98;10.23;;;;;;;9.31;100.00;100979.66;5089552;28;20522;-52
2022/12/21 10:08:12;;;;;;;21.30;9.80;;;;;;;9.35;100.00;100975.34;5092550;28;20507;-54
2022/12/21 10:10:56;;;;;;;21.60;11.00;;;;;;;9.33;100.00;100980.25;5091626;28;20052;-57
2022/12/21 10:13:37;;;;;;;20.02;11.00;;;;;;;9.30;100.00;100975.28;5106223;28;20063;-52
2022/12/21 10:16:23;;;;;;;16.92;8.55;;;;;;;9.34;100.00;100976.44;5094818;28;20047;-53
2022/12/21 10:19:04;;;;;;;15.35;7.70;;;;;;;9.43;100.00;100970.53;5093564;28;20048;-52
2022/12/21 10:21:45;;;;;;;17.25;8.50;;;;;;;9.50;100.00;100965.69;5093652;28;20610;-53
2022/12/21 10:24:25;;;;;;;18.65;8.30;;;;;;;9.55;100.00;100968.50;5093157;28;20097;-51
2022/12/21 10:26:58;;;;;;;20.40;8.98;;;;;;;9.62;100.00;100970.97;5093831;28;20474;-52
2022/12/21 10:29:33;;;;;;;20.60;10.25;;;;;;;9.74;100.00;100968.91;5093395;28;20050;-53
2022/12/21 10:32:01;;;;;;;18.10;8.63;;;;;;;9.71;100.00;100972.16;5085161;28;20028;-55
2022/12/21 10:34:35;;;;;;;16.63;9.00;;;;;;;9.62;100.00;100977.25;5093295;28;20457;-55
2022/12/21 10:37:14;;;;;;;18.35;6.93;;;;;;;9.67;100.00;100974.59;5093185;28;20490;-54
2022/12/21 10:39:43;;;;;;;21.55;9.90;;;;;;;9.63;100.00;100978.91;5092923;28;20120;-55
2022/12/21 10:42:24;;;;;;;18.98;9.70;;;;;;;9.57;100.00;100969.03;5092742;28;20097;-55
2022/12/21 10:44:53;;;;;;;20.13;9.65;;;;;;;9.55;100.00;100961.16;5093015;28;20043;-54
2022/12/21 10:47:23;;;;;;;12.05;5.00;;;;;;;9.54;100.00;100955.94;5094157;28;20044;-55
2022/12/21 10:50:13;;;;;;;16.95;8.45;;;;;;;9.56;100.00;100951.06;5093757;28;20483;-54
2022/12/21 10:52:47;;;;;;;20.23;9.90;;;;;;;9.60;100.00;100952.22;5093958;28;20418;-53
2022/12/21 10:55:26;;;;;;;17.92;7.68;;;;;;;9.66;100.00;100948.44;5092803;28;20044;-55
2022/12/21 10:58:05;;;;;;;18.20;8.48;;;;;;;9.67;100.00;100952.81;5093581;28;20047;-54
2022/12/21 11:00:40;;;;;;;15.68;8.40;;;;;;;9.64;100.00;100947.88;5092733;28;20064;-57
2022/12/21 11:03:36;;;;;;;15.35;8.00;;;;;;;9.58;100.00;100938.84;5093884;28;20054;-54
2022/12/21 11:06:20;;;;;;;19.13;7.47;;;;;;;9.72;100.00;100933.81;5090844;28;20052;-55
2022/12/21 11:08:50;;;;;;;13.95;5.00;;;;;;;9.91;100.00;100933.41;5093995;28;20106;-56
2022/12/21 11:11:31;;;;;;;16.10;7.35;;;;;;;9.86;100.00;100930.63;5091245;28;20502;-55
2022/12/21 11:14:04;;;;;;;13.02;6.65;;;;;;;9.81;100.00;100931.41;5109016;28;20047;-53
2022/12/21 11:16:35;;;;;;;19.02;8.30;;;;;;;9.79;100.00;100936.31;5092384;28;20044;-55
2022/12/21 11:19:04;;;;;;;16.20;6.00;;;;;;;9.71;100.00;100929.44;5078535;28;20040;-54
2022/12/21 11:21:38;;;;;;;13.98;5.75;;;;;;;9.77;100.00;100936.56;5093640;28;20032;-53
2022/12/21 11:24:18;;;;;;;15.98;6.88;;;;;;;9.72;100.00;100933.00;5092576;28;20140;-55
2022/12/21 11:26:53;;;;;;;17.40;7.57;;;;;;;9.76;100.00;100940.34;5092681;28;20114;-53
2022/12/21 11:29:39;;;;;;;16.25;8.07;;;;;;;9.77;100.00;100939.28;5091881;28;20127;-55
2022/12/21 11:32:10;;;;;;;17.15;8.13;;;;;;;9.67;100.00;100943.81;5092778;28;20047;-54
2022/12/21 11:34:43;;;;;;;19.20;8.10;;;;;;;9.73;100.00;100937.34;5092186;28;20032;-56
2022/12/21 11:37:42;;;;;;;20.70;8.43;;;;;;;9.62;100.00;100941.06;5075659;28;20097;-55
2022/12/21 11:40:22;;;;;;;15.90;7.93;;;;;;;9.56;100.00;100941.00;5087012;28;20044;-53
2022/12/21 11:42:52;;;;;;;12.55;7.00;;;;;;;9.54;100.00;100937.72;5093251;28;20062;-56
2022/12/21 11:45:36;;;;;;;14.38;7.10;;;;;;;9.53;100.00;100930.66;5093819;28;20051;-56
2022/12/21 11:48:28;;;;;;;16.88;6.82;;;;;;;9.57;100.00;100939.09;5094331;28;20040;-55